Time;durP1;ratioP1;P1;durP2;ratioP2;P2;SDS_P1;SDS_P2;PMS_P1;PMS_P2;Temp;Humidity;BMP_temperature;BMP_pressure;BME280_temperature;BME280_humidity;BME280_pressure;Samples;Min_cycle;Max_cycle;Signal;HPM_P1;HPM_P2
2022/09/20 00:01:41;;;;;;;;;;;9.00;99.90;;;;;;5086539;28;19962;-73
2022/09/20 00:04:07;;;;;;;;;;;9.00;99.90;;;;;;5086524;28;20160;-72
2022/09/20 00:06:35;;;;;;;;;;;9.00;99.90;;;;;;5085717;28;19959;-72
2022/09/20 00:09:03;;;;;;;;;;;8.90;99.90;;;;;;5086244;28;19920;-72
2022/09/20 00:11:31;;;;;;;;;;;8.90;99.90;;;;;;5085982;28;19984;-73
2022/09/20 00:13:58;;;;;;;;;;;9.00;99.90;;;;;;5086215;28;19928;-71
2022/09/20 00:16:26;;;;;;;;;;;8.90;99.90;;;;;;5085087;28;19988;-72
2022/09/20 00:18:54;;;;;;;;;;;8.90;99.90;;;;;;5086005;28;20107;-72
2022/09/20 00:21:21;;;;;;;;;;;8.90;99.90;;;;;;5085860;28;19927;-73
2022/09/20 00:23:49;;;;;;;;;;;9.00;99.90;;;;;;5085722;28;19926;-72
2022/09/20 00:26:16;;;;;;;;;;;9.00;99.90;;;;;;5085543;28;19927;-73
2022/09/20 00:28:43;;;;;;;;;;;9.00;99.90;;;;;;5086035;28;19921;-72
2022/09/20 00:31:11;;;;;;;;;;;9.00;99.90;;;;;;5085545;28;19979;-72
2022/09/20 00:36:22;;;;;;;;;;;9.00;99.90;;;;;;5085131;28;19966;-72
2022/09/20 00:38:54;;;;;;;;;;;8.90;99.90;;;;;;5085309;28;19926;-72
2022/09/20 00:41:20;;;;;;;;;;;8.90;99.90;;;;;;5084440;28;19926;-71
2022/09/20 00:43:47;;;;;;;;;;;8.90;99.90;;;;;;5084569;28;19920;-72
2022/09/20 00:46:19;;;;;;;;;;;8.90;99.90;;;;;;5084345;28;19920;-71
2022/09/20 00:48:45;;;;;;;;;;;8.90;99.90;;;;;;5085671;28;20111;-72
2022/09/20 00:51:15;;;;;;;;;;;8.90;99.90;;;;;;5085364;28;19922;-72
2022/09/20 00:53:44;;;;;;;;;;;8.80;99.90;;;;;;5085634;28;19920;-73
2022/09/20 00:56:13;;;;;;;;;;;8.80;99.90;;;;;;5085061;28;19920;-73
2022/09/20 00:58:42;;;;;;;;;;;8.80;99.90;;;;;;5085252;28;19927;-72
2022/09/20 01:01:09;;;;;;;;;;;8.70;99.90;;;;;;5085277;28;19926;-72
2022/09/20 01:03:37;;;;;;;;;;;8.80;99.90;;;;;;5085323;28;19983;-73
2022/09/20 01:06:06;;;;;;;;;;;8.70;99.90;;;;;;5084775;28;20200;-72
2022/09/20 01:08:40;;;;;;;;;;;8.70;99.90;;;;;;5084583;28;20111;-72
2022/09/20 01:11:07;;;;;;;;;;;8.70;99.90;;;;;;5081445;28;19926;-72
2022/09/20 01:13:35;;;;;;;;;;;8.70;99.90;;;;;;5085072;28;19920;-72
2022/09/20 01:16:02;;;;;;;;;;;8.70;99.90;;;;;;5083936;28;19926;-72
2022/09/20 01:18:30;;;;;;;;;;;8.70;99.90;;;;;;5084924;28;20187;-72
2022/09/20 01:20:58;;;;;;;;;;;8.70;99.90;;;;;;5084812;28;20203;-72
2022/09/20 01:23:29;;;;;;;;;;;8.80;99.90;;;;;;5084886;28;19920;-73
2022/09/20 01:26:23;;;;;;;;;;;8.80;99.90;;;;;;5084667;28;19921;-72
2022/09/20 01:28:57;;;;;;;;;;;8.80;99.90;;;;;;5048793;28;19926;-72
2022/09/20 01:31:25;;;;;;;;;;;8.80;99.90;;;;;;5084910;28;19926;-71
2022/09/20 01:33:52;;;;;;;;;;;8.80;99.90;;;;;;5084839;28;19927;-73
2022/09/20 01:36:23;;;;;;;;;;;8.80;99.90;;;;;;5084266;28;19960;-72
2022/09/20 01:38:54;;;;;;;;;;;8.80;99.90;;;;;;5084296;28;19921;-72
2022/09/20 01:41:23;;;;;;;;;;;8.80;99.90;;;;;;5084097;28;20232;-72
2022/09/20 01:43:53;;;;;;;;;;;8.80;99.90;;;;;;5084648;28;19921;-72
2022/09/20 01:46:24;;;;;;;;;;;8.80;99.90;;;;;;5084092;28;19920;-75
2022/09/20 01:48:53;;;;;;;;;;;8.90;99.90;;;;;;5084135;28;19920;-72
2022/09/20 01:51:29;;;;;;;;;;;8.90;99.90;;;;;;5084296;28;19927;-73
2022/09/20 01:54:12;;;;;;;;;;;8.80;99.90;;;;;;5084505;28;19920;-72
2022/09/20 01:56:45;;;;;;;;;;;8.90;99.90;;;;;;5083673;28;19921;-72
2022/09/20 01:59:21;;;;;;;;;;;8.90;99.90;;;;;;5083752;28;19981;-72
2022/09/20 02:02:03;;;;;;;;;;;8.90;99.90;;;;;;5083611;28;20170;-72
2022/09/20 02:04:39;;;;;;;;;;;8.90;99.90;;;;;;5083502;28;19920;-72
2022/09/20 02:07:14;;;;;;;;;;;8.90;99.90;;;;;;5083961;28;19962;-72
2022/09/20 02:10:11;;;;;;;;;;;8.90;99.90;;;;;;5083581;28;19942;-73
2022/09/20 02:12:43;;;;;;;;;;;8.90;99.90;;;;;;5022944;28;19933;-72
2022/09/20 02:15:19;;;;;;;;;;;9.00;99.90;;;;;;5070905;28;19920;-72
2022/09/20 02:17:52;;;;;;;;;;;8.90;99.90;;;;;;5080952;28;19921;-72
2022/09/20 02:20:25;;;;;;;;;;;9.00;99.90;;;;;;5083991;28;19920;-73
2022/09/20 02:22:57;;;;;;;;;;;9.00;99.90;;;;;;5084023;28;19927;-72
2022/09/20 02:25:34;;;;;;;;;;;9.00;99.90;;;;;;5083322;28;19984;-73
2022/09/20 02:28:06;;;;;;;;;;;9.00;99.90;;;;;;5083045;28;20231;-72
2022/09/20 02:30:41;;;;;;;;;;;9.10;99.90;;;;;;5083669;28;20204;-73
2022/09/20 02:33:17;;;;;;;;;;;9.00;99.90;;;;;;5083308;28;19927;-74
2022/09/20 02:35:51;;;;;;;;;;;9.00;99.90;;;;;;5083316;28;20226;-73
2022/09/20 02:38:25;;;;;;;;;;;9.00;99.90;;;;;;5083207;28;20100;-73
2022/09/20 02:41:02;;;;;;;;;;;9.00;99.90;;;;;;5083386;28;19940;-73
2022/09/20 02:43:33;;;;;;;;;;;8.90;99.90;;;;;;5083741;28;19920;-72
2022/09/20 02:46:06;;;;;;;;;;;8.90;99.90;;;;;;5083213;28;19996;-72
2022/09/20 02:48:36;;;;;;;;;;;8.90;99.90;;;;;;5083592;28;19920;-72
2022/09/20 02:51:05;;;;;;;;;;;8.90;99.90;;;;;;5083515;28;20204;-73
2022/09/20 02:53:37;;;;;;;;;;;9.00;99.90;;;;;;5083257;28;20211;-72
2022/09/20 02:56:07;;;;;;;;;;;8.90;99.90;;;;;;5083125;28;19942;-72
2022/09/20 02:58:38;;;;;;;;;;;9.00;99.90;;;;;;5083543;28;19920;-72
2022/09/20 03:01:09;;;;;;;;;;;8.90;99.90;;;;;;5083350;28;20237;-73
2022/09/20 03:03:43;;;;;;;;;;;8.90;99.90;;;;;;5083595;28;19920;-72
2022/09/20 03:06:14;;;;;;;;;;;8.90;99.90;;;;;;5083282;28;19920;-72
2022/09/20 03:08:48;;;;;;;;;;;8.90;99.90;;;;;;5083148;28;19983;-72
2022/09/20 03:11:18;;;;;;;;;;;8.90;99.90;;;;;;5083239;28;19926;-72
2022/09/20 03:13:54;;;;;;;;;;;8.90;99.90;;;;;;5083442;28;19929;-72
2022/09/20 03:16:26;;;;;;;;;;;8.90;99.90;;;;;;5083130;28;19920;-73
2022/09/20 03:18:59;;;;;;;;;;;8.90;99.90;;;;;;5083317;28;19920;-72
2022/09/20 03:21:31;;;;;;;;;;;9.00;99.90;;;;;;5083066;28;19921;-72
2022/09/20 03:24:03;;;;;;;;;;;8.90;99.90;;;;;;5083078;28;19924;-70
2022/09/20 03:26:41;;;;;;;;;;;8.90;99.90;;;;;;5083013;28;19963;-72
2022/09/20 03:29:09;;;;;;;;;;;8.90;99.90;;;;;;5083177;28;20203;-72
2022/09/20 03:31:46;;;;;;;;;;;8.90;99.90;;;;;;5083359;28;20006;-72
2022/09/20 03:34:20;;;;;;;;;;;8.80;99.90;;;;;;5083165;28;19956;-72
2022/09/20 03:39:39;;;;;;;;;;;8.80;99.90;;;;;;5091545;22;19913;-95
2022/09/20 03:42:18;;;;;;;;;;;8.80;99.90;;;;;;5069204;28;19912;-95
2022/09/20 03:44:54;;;;;;;;;;;8.80;99.90;;;;;;5067490;28;19940;-95
2022/09/20 03:47:38;;;;;;;;;;;8.50;99.90;;;;;;5081387;28;20107;-94
2022/09/20 03:50:19;;;;;;;;;;;8.70;99.90;;;;;;5081875;28;19913;-94
2022/09/20 03:52:56;;;;;;;;;;;9.00;99.90;;;;;;5082117;28;19912;-95
2022/09/20 03:55:35;;;;;;;;;;;8.60;99.90;;;;;;5081096;28;19915;-95
2022/09/20 03:58:09;;;;;;;;;;;8.70;99.90;;;;;;5081256;28;19939;-95
2022/09/20 04:00:47;;;;;;;;;;;9.10;99.90;;;;;;5074638;28;19936;-94
2022/09/20 04:03:22;;;;;;;;;;;8.70;99.90;;;;;;5081424;28;19913;-95
2022/09/20 04:06:05;;;;;;;;;;;8.60;99.90;;;;;;5081214;28;19909;-96
2022/09/20 04:11:55;;;;;;;;;;;8.60;99.90;;;;;;5078493;28;19928;-95
2022/09/20 04:14:52;;;;;;;;;;;8.70;99.90;;;;;;5020371;28;19937;-95
2022/09/20 04:17:38;;;;;;;;;;;9.10;99.90;;;;;;4984296;28;19946;-95
2022/09/20 04:20:22;;;;;;;;;;;8.50;99.90;;;;;;5017261;28;19919;-95
2022/09/20 04:22:51;;;;;;;;;;;8.50;99.90;;;;;;5080395;28;19913;-93
2022/09/20 04:25:19;;;;;;;;;;;8.50;99.90;;;;;;5071803;28;19936;-94
2022/09/20 04:27:49;;;;;;;;;;;8.50;99.90;;;;;;5080979;28;19964;-95
2022/09/20 04:30:22;;;;;;;;;;;7.80;99.90;;;;;;5081313;28;19908;-95
2022/09/20 04:32:52;;;;;;;;;;;8.50;99.90;;;;;;5080400;28;19980;-96
2022/09/20 04:38:14;;;;;;;;;;;8.50;99.90;;;;;;5071604;28;19931;-96
2022/09/20 04:43:59;;;;;;;;;;;9.00;99.90;;;;;;5077355;28;19912;-95
2022/09/20 04:46:38;;;;;;;;;;;8.40;99.90;;;;;;5068916;28;19909;-95
2022/09/20 04:49:35;;;;;;;;;;;8.30;99.90;;;;;;5081347;28;19948;-96
2022/09/20 04:52:25;;;;;;;;;;;8.30;99.90;;;;;;5081915;28;19913;-95
2022/09/20 04:55:15;;;;;;;;;;;8.30;99.90;;;;;;5068607;28;19909;-95
2022/09/20 04:58:08;;;;;;;;;;;8.20;99.90;;;;;;5079203;28;19913;-95
2022/09/20 05:19:31;;;;;;;;;;;8.10;99.90;;;;;;4964015;22;19927;-73
2022/09/20 05:22:31;;;;;;;;;;;8.00;99.90;;;;;;5083343;28;20121;-71
2022/09/20 05:25:15;;;;;;;;;;;8.00;99.90;;;;;;5039559;28;20294;-73
2022/09/20 05:27:43;;;;;;;;;;;7.90;99.90;;;;;;5032843;28;19921;-71
2022/09/20 05:30:14;;;;;;;;;;;8.00;99.90;;;;;;5055004;28;19921;-73
2022/09/20 05:32:44;;;;;;;;;;;8.00;99.90;;;;;;5084562;22;19992;-70
2022/09/20 05:35:16;;;;;;;;;;;8.00;99.90;;;;;;5083241;28;19983;-73
2022/09/20 05:37:46;;;;;;;;;;;8.10;99.90;;;;;;5083891;28;19952;-74
2022/09/20 05:40:18;;;;;;;;;;;8.10;99.90;;;;;;5084207;28;19927;-70
2022/09/20 05:42:51;;;;;;;;;;;8.10;99.90;;;;;;5084451;28;19959;-71
2022/09/20 05:45:22;;;;;;;;;;;8.10;99.90;;;;;;5084024;28;19921;-71
2022/09/20 05:47:51;;;;;;;;;;;8.10;99.90;;;;;;5076281;28;20220;-71
2022/09/20 05:50:35;;;;;;;;;;;8.10;99.90;;;;;;5064224;28;19920;-70
2022/09/20 05:53:06;;;;;;;;;;;8.20;99.90;;;;;;5082437;28;19955;-71
2022/09/20 05:55:52;;;;;;;;;;;8.10;99.90;;;;;;5084520;28;19927;-72
2022/09/20 05:58:34;;;;;;;;;;;8.20;99.90;;;;;;5084437;28;20322;-71
2022/09/20 06:01:02;;;;;;;;;;;8.20;99.90;;;;;;5084275;28;19920;-70
2022/09/20 06:03:34;;;;;;;;;;;8.20;99.90;;;;;;5084202;28;19920;-71
2022/09/20 06:06:04;;;;;;;;;;;8.20;99.90;;;;;;5084165;28;19927;-71
2022/09/20 06:08:51;;;;;;;;;;;8.30;99.90;;;;;;5070487;28;20215;-70
2022/09/20 06:11:24;;;;;;;;;;;8.30;99.90;;;;;;5059135;28;19928;-71
2022/09/20 06:14:04;;;;;;;;;;;8.30;99.90;;;;;;5057190;28;19921;-71
2022/09/20 06:16:35;;;;;;;;;;;8.30;99.90;;;;;;5065929;28;19943;-71
2022/09/20 06:19:05;;;;;;;;;;;8.40;99.90;;;;;;5064088;28;19921;-71
2022/09/20 06:21:41;;;;;;;;;;;8.40;99.90;;;;;;5064226;28;19963;-71
2022/09/20 06:24:16;;;;;;;;;;;8.40;99.90;;;;;;5044296;28;19921;-71
2022/09/20 06:26:44;;;;;;;;;;;8.50;99.90;;;;;;5061436;28;19963;-71
2022/09/20 06:29:13;;;;;;;;;;;8.50;99.90;;;;;;5063966;28;19984;-71
2022/09/20 06:31:39;;;;;;;;;;;8.60;99.90;;;;;;5064160;28;19927;-70
2022/09/20 06:34:08;;;;;;;;;;;8.60;99.90;;;;;;5063653;28;20167;-71
2022/09/20 06:42:09;;;;;;;;;;;8.70;99.90;;;;;;5063794;28;20160;-71
2022/09/20 06:44:40;;;;;;;;;;;8.70;99.90;;;;;;5063839;28;19944;-73
2022/09/20 06:47:07;;;;;;;;;;;8.70;99.90;;;;;;5064029;28;19924;-71
2022/09/20 06:49:48;;;;;;;;;;;8.70;99.90;;;;;;5063462;28;19988;-71
2022/09/20 06:52:17;;;;;;;;;;;8.70;99.90;;;;;;5063776;28;20224;-71
2022/09/20 06:54:44;;;;;;;;;;;8.70;99.90;;;;;;5063742;28;20198;-72
2022/09/20 06:57:13;;;;;;;;;;;8.80;99.90;;;;;;5063736;28;20008;-71
2022/09/20 06:59:39;;;;;;;;;;;8.80;99.90;;;;;;5063891;28;19983;-71
2022/09/20 07:02:07;;;;;;;;;;;8.90;99.90;;;;;;5063779;28;19983;-71
2022/09/20 07:04:33;;;;;;;;;;;8.90;99.90;;;;;;5063114;28;19921;-71
2022/09/20 07:07:00;;;;;;;;;;;8.90;99.90;;;;;;5063374;28;20234;-71
2022/09/20 07:09:28;;;;;;;;;;;8.90;99.90;;;;;;5062937;28;19959;-72
2022/09/20 07:11:56;;;;;;;;;;;9.00;99.90;;;;;;5062845;28;19988;-71
2022/09/20 07:14:22;;;;;;;;;;;9.10;99.90;;;;;;5066456;28;19921;-70
2022/09/20 07:16:49;;;;;;;;;;;9.20;99.90;;;;;;5065822;28;19920;-72
2022/09/20 07:19:16;;;;;;;;;;;9.20;99.90;;;;;;5067207;28;19928;-71
2022/09/20 07:21:42;;;;;;;;;;;9.30;99.90;;;;;;5067064;28;19925;-71
2022/09/20 07:24:09;;;;;;;;;;;9.30;99.90;;;;;;5066331;28;19928;-71
2022/09/20 07:26:38;;;;;;;;;;;9.40;99.90;;;;;;5066459;28;19952;-71
2022/09/20 07:29:05;;;;;;;;;;;9.40;99.90;;;;;;5066543;28;19921;-71
2022/09/20 07:31:32;;;;;;;;;;;9.50;99.90;;;;;;5066663;28;19921;-71
2022/09/20 07:33:58;;;;;;;;;;;9.70;99.90;;;;;;5066708;28;19920;-70
2022/09/20 07:36:25;;;;;;;;;;;9.70;99.90;;;;;;5065963;28;20259;-71
2022/09/20 07:38:52;;;;;;;;;;;9.80;99.90;;;;;;5066326;28;19921;-72
2022/09/20 07:41:21;;;;;;;;;;;9.80;99.90;;;;;;5065344;28;19967;-70
2022/09/20 07:43:51;;;;;;;;;;;9.90;99.90;;;;;;5066367;28;19948;-72
2022/09/20 07:46:22;;;;;;;;;;;9.90;99.90;;;;;;5065995;28;20111;-71
2022/09/20 07:48:48;;;;;;;;;;;10.00;99.90;;;;;;5079526;28;19920;-70
2022/09/20 07:51:15;;;;;;;;;;;10.00;99.90;;;;;;5081048;28;19943;-71
2022/09/20 07:53:42;;;;;;;;;;;10.10;99.90;;;;;;5066358;28;19983;-71
2022/09/20 07:56:10;;;;;;;;;;;10.10;99.90;;;;;;5065523;28;19928;-71
2022/09/20 07:58:37;;;;;;;;;;;10.10;99.90;;;;;;5064167;28;19920;-71
2022/09/20 08:01:05;;;;;;;;;;;10.20;99.90;;;;;;5066040;28;19984;-71
2022/09/20 08:03:33;;;;;;;;;;;10.10;99.90;;;;;;5065925;28;19920;-71
2022/09/20 08:06:00;;;;;;;;;;;10.20;99.90;;;;;;5069960;28;20216;-71
2022/09/20 08:08:27;;;;;;;;;;;10.20;99.90;;;;;;5065952;28;19929;-71
2022/09/20 08:11:01;;;;;;;;;;;10.20;99.90;;;;;;5065261;28;19928;-71
2022/09/20 08:13:28;;;;;;;;;;;10.20;99.90;;;;;;5064621;28;19921;-71
2022/09/20 08:16:00;;;;;;;;;;;10.20;99.90;;;;;;5064986;28;19921;-70
2022/09/20 08:18:28;;;;;;;;;;;10.20;99.90;;;;;;5065807;28;19966;-70
2022/09/20 08:20:55;;;;;;;;;;;10.20;99.90;;;;;;5072843;28;19942;-72
2022/09/20 08:23:22;;;;;;;;;;;10.30;99.90;;;;;;5084354;28;20154;-71
2022/09/20 08:25:48;;;;;;;;;;;10.30;99.90;;;;;;5072442;28;19927;-71
2022/09/20 08:28:15;;;;;;;;;;;10.40;99.90;;;;;;5062706;28;20115;-72
2022/09/20 08:30:41;;;;;;;;;;;10.50;99.90;;;;;;5045654;28;19984;-71
2022/09/20 08:33:10;;;;;;;;;;;10.60;99.90;;;;;;5045261;28;19956;-70
2022/09/20 08:35:38;;;;;;;;;;;10.70;99.90;;;;;;5075984;28;19920;-71
2022/09/20 08:38:04;;;;;;;;;;;10.80;99.90;;;;;;5085745;28;19991;-71
2022/09/20 08:40:31;;;;;;;;;;;10.90;99.90;;;;;;5083322;28;19924;-71
2022/09/20 08:42:58;;;;;;;;;;;10.90;99.90;;;;;;5065367;28;19920;-71
2022/09/20 08:45:25;;;;;;;;;;;10.90;99.90;;;;;;5064977;28;20115;-71
2022/09/20 08:47:55;;;;;;;;;;;10.90;99.90;;;;;;5065286;28;19925;-71
2022/09/20 08:50:21;;;;;;;;;;;10.90;99.90;;;;;;5065322;28;19925;-71
2022/09/20 08:52:53;;;;;;;;;;;11.00;99.90;;;;;;5065337;28;19921;-71
2022/09/20 08:55:21;;;;;;;;;;;11.00;99.90;;;;;;5064650;28;19921;-72
2022/09/20 08:57:49;;;;;;;;;;;11.00;99.90;;;;;;5064935;28;19991;-72
2022/09/20 09:00:17;;;;;;;;;;;11.10;99.90;;;;;;5064277;28;20251;-68
2022/09/20 09:02:44;;;;;;;;;;;11.10;99.90;;;;;;5051819;28;19924;-70
2022/09/20 09:05:25;;;;;;;;;;;11.00;99.90;;;;;;5084636;28;19955;-71
2022/09/20 09:07:53;;;;;;;;;;;11.00;99.90;;;;;;5085627;28;19927;-71
2022/09/20 09:10:19;;;;;;;;;;;11.10;99.90;;;;;;5069184;28;20251;-71
2022/09/20 09:12:47;;;;;;;;;;;11.20;99.90;;;;;;5064630;28;19920;-71
2022/09/20 09:15:21;;;;;;;;;;;11.20;99.90;;;;;;5064181;28;20260;-71
2022/09/20 09:17:48;;;;;;;;;;;11.30;99.90;;;;;;5071613;28;19927;-71
2022/09/20 09:20:16;;;;;;;;;;;11.30;99.90;;;;;;5084554;28;19935;-71
2022/09/20 09:22:44;;;;;;;;;;;11.30;99.90;;;;;;5083934;28;19920;-72
2022/09/20 09:25:21;;;;;;;;;;;11.30;99.90;;;;;;5067183;28;19927;-71
2022/09/20 09:27:55;;;;;;;;;;;11.40;99.90;;;;;;5064463;28;19920;-71
2022/09/20 09:30:25;;;;;;;;;;;11.50;99.90;;;;;;5064520;28;19929;-71
2022/09/20 09:32:51;;;;;;;;;;;11.50;99.90;;;;;;5081411;28;19920;-71
2022/09/20 09:35:28;;;;;;;;;;;11.50;99.90;;;;;;5083721;28;19921;-70
2022/09/20 09:37:55;;;;;;;;;;;11.50;99.90;;;;;;5076591;28;19988;-71
2022/09/20 09:40:24;;;;;;;;;;;11.60;99.90;;;;;;5063789;28;19920;-71
2022/09/20 09:42:52;;;;;;;;;;;11.60;99.90;;;;;;5064408;28;19943;-71
2022/09/20 09:45:27;;;;;;;;;;;11.70;99.90;;;;;;5063921;28;19921;-72
2022/09/20 09:47:54;;;;;;;;;;;11.90;99.90;;;;;;5064314;28;19976;-71
2022/09/20 09:50:22;;;;;;;;;;;11.90;99.90;;;;;;5064057;28;19920;-71
2022/09/20 09:52:57;;;;;;;;;;;11.80;99.90;;;;;;5063741;28;19933;-71
2022/09/20 09:55:26;;;;;;;;;;;11.80;99.90;;;;;;5058977;28;19920;-72
2022/09/20 09:57:56;;;;;;;;;;;11.70;99.90;;;;;;5063401;28;19921;-70
2022/09/20 10:00:25;;;;;;;;;;;11.60;99.90;;;;;;5047564;28;19921;-70
2022/09/20 10:03:12;;;;;;;;;;;11.60;99.90;;;;;;5043579;28;20229;-71
2022/09/20 10:05:44;;;;;;;;;;;11.60;99.90;;;;;;5043758;28;20163;-71
2022/09/20 10:08:15;;;;;;;;;;;11.60;99.90;;;;;;5043839;28;19921;-71
2022/09/20 10:10:52;;;;;;;;;;;11.70;99.90;;;;;;5047411;28;19928;-72
2022/09/20 10:13:23;;;;;;;;;;;11.80;99.90;;;;;;5066154;28;19984;-71
2022/09/20 10:15:55;;;;;;;;;;;11.90;99.90;;;;;;5062432;28;20390;-71
2022/09/20 10:18:27;;;;;;;;;;;12.00;99.90;;;;;;5062785;28;20204;-71
2022/09/20 10:21:04;;;;;;;;;;;12.20;99.90;;;;;;5063223;28;19921;-70
2022/09/20 10:23:41;;;;;;;;;;;12.40;99.90;;;;;;5063473;28;19966;-70
2022/09/20 10:26:19;;;;;;;;;;;12.70;99.90;;;;;;5063244;28;20149;-71
2022/09/20 10:28:51;;;;;;;;;;;12.90;99.90;;;;;;5059213;28;20023;-71
2022/09/20 10:31:26;;;;;;;;;;;13.10;99.90;;;;;;5057218;28;19927;-71
2022/09/20 10:33:58;;;;;;;;;;;13.30;99.90;;;;;;5063224;28;19921;-71
2022/09/20 10:36:29;;;;;;;;;;;13.50;99.90;;;;;;5062828;28;19921;-71
2022/09/20 10:38:59;;;;;;;;;;;13.60;99.90;;;;;;5063122;28;20250;-71
2022/09/20 10:44:35;;;;;;;;;;;13.50;99.90;;;;;;5063280;28;19943;-71
2022/09/20 10:47:07;;;;;;;;;;;13.30;99.90;;;;;;5054847;28;19983;-71
2022/09/20 10:49:35;;;;;;;;;;;13.30;99.90;;;;;;5082211;28;20108;-71
2022/09/20 10:52:09;;;;;;;;;;;13.20;99.90;;;;;;5081909;28;19929;-71
2022/09/20 10:54:42;;;;;;;;;;;13.10;99.90;;;;;;5082927;28;19991;-71
2022/09/20 10:57:17;;;;;;;;;;;13.10;99.90;;;;;;5063062;28;20220;-71
2022/09/20 10:59:47;;;;;;;;;;;13.10;99.90;;;;;;5062635;28;19935;-71
2022/09/20 11:02:20;;;;;;;;;;;13.00;99.90;;;;;;5062077;28;19925;-71
2022/09/20 11:05:02;;;;;;;;;;;12.90;99.90;;;;;;5062748;28;19996;-71
2022/09/20 11:07:35;;;;;;;;;;;12.90;99.90;;;;;;5046335;28;19952;-71
2022/09/20 11:10:04;;;;;;;;;;;12.80;99.90;;;;;;5063260;28;19921;-71
2022/09/20 11:12:37;;;;;;;;;;;12.80;99.90;;;;;;5062891;28;19991;-71
2022/09/20 11:15:05;;;;;;;;;;;12.60;99.90;;;;;;5063004;28;19932;-71
2022/09/20 11:17:34;;;;;;;;;;;12.60;99.90;;;;;;5062691;28;19928;-71
2022/09/20 11:20:05;;;;;;;;;;;12.50;99.90;;;;;;5060482;28;19952;-71
2022/09/20 11:22:34;;;;;;;;;;;12.40;99.90;;;;;;5061557;28;19955;-71
2022/09/20 11:25:02;;;;;;;;;;;12.40;99.90;;;;;;5062097;28;19921;-71
2022/09/20 11:27:32;;;;;;;;;;;12.40;99.90;;;;;;5062856;28;19988;-71
2022/09/20 11:30:01;;;;;;;;;;;12.50;99.90;;;;;;5062759;28;19921;-71
2022/09/20 11:32:31;;;;;;;;;;;12.60;99.90;;;;;;5079012;22;19955;-73
2022/09/20 11:35:01;;;;;;;;;;;12.70;99.90;;;;;;5082028;28;20162;-73
2022/09/20 11:37:30;;;;;;;;;;;12.90;99.90;;;;;;5082123;28;19927;-73
2022/09/20 11:40:00;;;;;;;;;;;12.90;99.90;;;;;;5082760;28;19988;-73
2022/09/20 11:42:28;;;;;;;;;;;12.90;99.90;;;;;;5082674;28;19983;-74
2022/09/20 11:44:55;;;;;;;;;;;12.70;99.90;;;;;;5082303;28;19991;-73
2022/09/20 11:47:25;;;;;;;;;;;12.60;99.90;;;;;;5082675;28;19987;-73
2022/09/20 11:49:58;;;;;;;;;;;12.60;99.90;;;;;;5082827;28;20231;-73
2022/09/20 11:52:31;;;;;;;;;;;12.70;99.90;;;;;;5062215;28;19959;-73
2022/09/20 11:55:15;;;;;;;;;;;13.10;99.90;;;;;;5068654;28;20271;-74
2022/09/20 11:57:42;;;;;;;;;;;13.40;99.90;;;;;;5082863;28;19920;-73
2022/09/20 12:00:09;;;;;;;;;;;13.70;99.90;;;;;;5086082;28;20202;-74
2022/09/20 12:02:40;;;;;;;;;;;13.60;99.90;;;;;;5085583;28;19981;-74
2022/09/20 12:05:20;;;;;;;;;;;13.40;99.90;;;;;;5082821;28;19933;-73
2022/09/20 12:07:47;;;;;;;;;;;13.30;99.90;;;;;;5046043;28;19921;-74
2022/09/20 12:10:20;;;;;;;;;;;13.20;99.90;;;;;;5046149;28;19925;-74
2022/09/20 12:12:49;;;;;;;;;;;13.30;99.90;;;;;;5062139;28;19920;-73
2022/09/20 12:15:24;;;;;;;;;;;13.50;99.90;;;;;;5065284;28;19952;-73
2022/09/20 12:18:07;;;;;;;;;;;13.70;99.90;;;;;;5065732;28;20115;-73
2022/09/20 12:20:52;;;;;;;;;;;14.00;99.90;;;;;;5055107;28;19927;-74
2022/09/20 12:23:37;;;;;;;;;;;14.30;99.90;;;;;;5053287;28;19992;-73
2022/09/20 12:26:06;;;;;;;;;;;14.50;99.90;;;;;;5053296;28;19921;-74
2022/09/20 12:28:34;;;;;;;;;;;14.70;99.90;;;;;;5072466;28;19924;-74
2022/09/20 12:31:19;;;;;;;;;;;14.80;99.90;;;;;;5065432;28;20208;-73
2022/09/20 12:33:56;;;;;;;;;;;14.90;99.90;;;;;;5065359;28;19920;-73
2022/09/20 12:36:22;;;;;;;;;;;15.00;99.90;;;;;;5064646;28;19921;-73
2022/09/20 12:38:53;;;;;;;;;;;15.20;99.90;;;;;;5065405;28;19920;-74
2022/09/20 12:41:21;;;;;;;;;;;15.50;99.90;;;;;;5065159;28;19927;-74
2022/09/20 12:44:09;;;;;;;;;;;15.70;99.90;;;;;;5064994;28;19925;-74
2022/09/20 12:46:38;;;;;;;;;;;15.90;99.90;;;;;;5065118;28;19992;-74
2022/09/20 12:55:05;;;;;;;;;;;15.60;99.90;;;;;;5046601;28;19955;-72
2022/09/20 12:57:34;;;;;;;;;;;15.80;99.90;;;;;;5064967;28;20177;-75
2022/09/20 13:00:01;;;;;;;;;;;15.70;99.90;;;;;;5064627;28;20239;-75
2022/09/20 13:02:41;;;;;;;;;;;15.60;99.90;;;;;;5063988;28;19921;-73
2022/09/20 13:05:31;;;;;;;;;;;15.30;99.90;;;;;;5063896;28;20234;-73
2022/09/20 13:08:01;;;;;;;;;;;14.80;99.90;;;;;;5064835;28;19920;-73
2022/09/20 13:10:33;;;;;;;;;;;14.40;99.90;;;;;;5064049;28;19924;-74
2022/09/20 13:13:12;;;;;;;;;;;14.10;99.90;;;;;;5064100;28;19928;-73
2022/09/20 13:15:40;;;;;;;;;;;13.80;99.90;;;;;;5064468;28;20204;-73
2022/09/20 13:18:08;;;;;;;;;;;13.50;99.90;;;;;;5061710;28;20299;-73
2022/09/20 13:20:35;;;;;;;;;;;13.10;99.90;;;;;;5044646;28;19921;-73
2022/09/20 13:23:03;;;;;;;;;;;12.90;99.90;;;;;;5058866;28;20124;-73
2022/09/20 13:25:30;;;;;;;;;;;12.60;99.90;;;;;;5063855;28;19940;-74
2022/09/20 13:28:01;;;;;;;;;;;12.30;99.90;;;;;;5068881;28;19926;-73
2022/09/20 13:30:31;;;;;;;;;;;12.10;99.90;;;;;;5048118;28;19988;-73
2022/09/20 13:33:14;;;;;;;;;;;12.00;99.90;;;;;;5048905;28;19921;-73
2022/09/20 13:35:40;;;;;;;;;;;12.10;99.90;;;;;;5063785;28;20089;-73
2022/09/20 13:38:09;;;;;;;;;;;12.30;99.90;;;;;;5064292;28;19929;-73
2022/09/20 13:40:37;;;;;;;;;;;12.70;99.90;;;;;;5064179;28;19921;-73
2022/09/20 13:43:05;;;;;;;;;;;13.10;99.90;;;;;;5064177;28;19920;-73
2022/09/20 13:45:33;;;;;;;;;;;13.50;99.90;;;;;;5064067;28;19921;-73
2022/09/20 13:48:01;;;;;;;;;;;14.00;99.90;;;;;;5055470;28;19925;-73
2022/09/20 13:50:29;;;;;;;;;;;14.40;99.90;;;;;;5063410;28;19924;-74
2022/09/20 13:52:56;;;;;;;;;;;14.80;99.90;;;;;;5063668;28;19920;-74
2022/09/20 13:55:29;;;;;;;;;;;15.10;99.90;;;;;;5063710;28;19943;-74
2022/09/20 13:57:57;;;;;;;;;;;15.30;99.90;;;;;;5062991;28;19936;-74
2022/09/20 14:00:24;;;;;;;;;;;15.50;99.90;;;;;;5063342;28;19925;-74
2022/09/20 14:02:53;;;;;;;;;;;15.50;99.90;;;;;;5062182;28;19925;-75
2022/09/20 14:05:21;;;;;;;;;;;15.20;99.90;;;;;;5063089;28;20254;-74
2022/09/20 14:07:48;;;;;;;;;;;14.80;99.90;;;;;;5063844;28;19927;-73
2022/09/20 14:10:32;;;;;;;;;;;14.60;99.90;;;;;;5062742;28;20267;-73
2022/09/20 14:12:59;;;;;;;;;;;14.50;99.90;;;;;;5063569;28;19927;-72
2022/09/20 14:15:28;;;;;;;;;;;14.30;99.90;;;;;;5062982;28;19920;-72
2022/09/20 14:17:56;;;;;;;;;;;14.10;99.90;;;;;;5063836;28;19959;-71
2022/09/20 14:20:23;;;;;;;;;;;14.00;99.90;;;;;;5045776;28;19927;-74
2022/09/20 14:22:54;;;;;;;;;;;13.70;99.90;;;;;;5063646;28;19987;-74
2022/09/20 14:25:24;;;;;;;;;;;13.50;99.90;;;;;;5063613;28;20154;-74
2022/09/20 14:28:04;;;;;;;;;;;13.30;99.90;;;;;;5067614;28;19920;-73
2022/09/20 14:30:31;;;;;;;;;;;13.20;99.90;;;;;;5075923;28;20103;-73
2022/09/20 14:32:59;;;;;;;;;;;13.30;99.90;;;;;;5073600;28;19983;-76
2022/09/20 14:35:26;;;;;;;;;;;13.40;99.90;;;;;;5077993;28;19920;-73
2022/09/20 14:37:55;;;;;;;;;;;13.70;99.90;;;;;;5063982;28;19936;-72
2022/09/20 14:40:23;;;;;;;;;;;14.10;99.90;;;;;;5073050;28;19934;-70
2022/09/20 14:42:51;;;;;;;;;;;14.50;99.90;;;;;;5071985;28;19921;-71
2022/09/20 14:45:22;;;;;;;;;;;14.90;99.90;;;;;;5062724;28;19921;-72
2022/09/20 14:47:56;;;;;;;;;;;15.10;99.90;;;;;;5075215;28;19970;-71
2022/09/20 14:50:25;;;;;;;;;;;15.30;99.90;;;;;;5077656;28;19921;-73
2022/09/20 14:53:03;;;;;;;;;;;15.50;99.90;;;;;;5063237;28;19921;-72
2022/09/20 14:55:31;;;;;;;;;;;15.50;99.90;;;;;;5062651;28;19921;-73
2022/09/20 14:57:59;;;;;;;;;;;15.70;99.90;;;;;;5052116;28;20124;-72
2022/09/20 15:00:26;;;;;;;;;;;15.70;99.90;;;;;;5062433;28;19991;-72
2022/09/20 15:02:52;;;;;;;;;;;15.80;99.90;;;;;;5062706;28;19925;-72
2022/09/20 15:05:22;;;;;;;;;;;15.80;99.90;;;;;;5077712;28;19927;-73
2022/09/20 15:07:50;;;;;;;;;;;15.70;99.90;;;;;;5069759;28;20216;-72
2022/09/20 15:10:17;;;;;;;;;;;15.70;99.90;;;;;;5052260;28;20212;-73
2022/09/20 15:12:44;;;;;;;;;;;15.50;99.90;;;;;;5063428;28;19952;-71
2022/09/20 15:15:14;;;;;;;;;;;15.20;99.90;;;;;;5070479;28;19992;-72
2022/09/20 15:17:41;;;;;;;;;;;15.00;99.90;;;;;;5079364;28;19988;-72
2022/09/20 15:20:12;;;;;;;;;;;14.80;99.90;;;;;;5063411;28;19921;-73
2022/09/20 15:22:40;;;;;;;;;;;14.50;99.90;;;;;;5063270;28;19921;-72
2022/09/20 15:25:11;;;;;;;;;;;14.30;99.90;;;;;;5062656;28;20312;-73
2022/09/20 15:27:38;;;;;;;;;;;14.10;99.90;;;;;;5045622;28;19921;-71
2022/09/20 15:30:05;;;;;;;;;;;13.90;99.90;;;;;;5063304;28;19984;-71
2022/09/20 15:32:32;;;;;;;;;;;13.80;99.90;;;;;;5062641;28;19921;-71
2022/09/20 15:34:59;;;;;;;;;;;13.60;99.90;;;;;;5065703;28;20097;-71
2022/09/20 15:37:25;;;;;;;;;;;13.50;99.90;;;;;;5066797;28;19921;-70